Airfield :
LOGIN :

Register | Disclaimer

   EN    FR    IT 

 










Legend :    VFR   Marginal VFR   IFR   Intensive IFR   Very Intensive IFR
Visi :
Ceiling :
>= 8 km
>= 3000ft
5 to 8 km
1000 to 3000 ft
1500m to 5 km
500 to 1000 ft
800 to 1500m
200 to 500 ft
< 800m
< 200 ft
Symbols :   Thunderstorms  Fog  Heavy snow  Heavy precipitations  Wind > 20 kt
SIGMETs :     Misc.  Thunderstorms  Icing  Turbulence  Mountain Waves  Volcanic Ashes







- Airport Elevation : 146 ft
- IATA code : RKE


EKRK - Roskilde Tune

CURRENT METAR :
  • 211720Z AUTO 13001KT 9999NDV FEW032/// BKN037/// 13/11 Q1021

EXPIRED METARs :
  • 211650Z AUTO 09001KT 9999NDV FEW027/// BKN037/// 14/10 Q1021
  • 211620Z AUTO 11004KT 9999NDV SCT021/// BKN030/// 13/10 Q1021
  • 211550Z AUTO 13004KT 9999NDV FEW023/// SCT028/// BKN033/// 14/11 Q1021
  • 211520Z AUTO 13005KT 9999NDV FEW030/// SCT037/// 14/11 Q1021
  • 211450Z AUTO 12005KT 9999NDV SCT024/// BKN035/// 15/11 Q1021

TAF TAF EKRK
Valid from the 21 at 18:00 until the 22 at 03:00 UTC


211722Z 2118/2203 VRB03KT 9999 SCT030
TEMPO 2121/2201 3000 BR
BECMG 2201/2203 0200 FG VV001
No reported NOTAMs for that airfield.



MET'MAP, your aeronautical weather chart ! - Copyright ORBIFLY December 2007 - Disclaimer

ORBIFLY MET'MAP TEAM :

Programming & Development : Alexandra Zaïnal
Concept & Development : Baudouin d'Aumeries
Co-Development & Prog : Marc-Olivier Méhu
Technical & hardware support : Manuel Goepfert

Contact : metmap@orbifly.com




SOURCES & CREDITS :

   NOAA